sensor_id;sensor_type;location;lat;lon;timestamp;pressure;altitude;pressure_sealevel;temperature;humidity
49102;BME280;34913;47.520;19.186;2023-03-25T00:00:09;98943.63;;;14.66;63.64
49102;BME280;34913;47.520;19.186;2023-03-25T00:02:41;98946.94;;;14.68;63.44
49102;BME280;34913;47.520;19.186;2023-03-25T00:05:10;98947.78;;;14.69;63.65
49102;BME280;34913;47.520;19.186;2023-03-25T00:07:37;98947.31;;;14.65;63.71
49102;BME280;34913;47.520;19.186;2023-03-25T00:10:03;98940.50;;;14.63;63.88
49102;BME280;34913;47.520;19.186;2023-03-25T00:12:28;98950.81;;;14.66;64.06
49102;BME280;34913;47.520;19.186;2023-03-25T00:14:55;98948.97;;;14.66;63.93
49102;BME280;34913;47.520;19.186;2023-03-25T00:17:23;98953.91;;;14.77;63.43
49102;BME280;34913;47.520;19.186;2023-03-25T00:19:57;98951.75;;;14.96;62.52
49102;BME280;34913;47.520;19.186;2023-03-25T00:22:25;98957.09;;;14.96;63.04
49102;BME280;34913;47.520;19.186;2023-03-25T00:24:50;98946.81;;;14.85;63.58
49102;BME280;34913;47.520;19.186;2023-03-25T00:27:16;98945.59;;;14.72;63.91
49102;BME280;34913;47.520;19.186;2023-03-25T00:29:44;98942.34;;;14.62;64.43
49102;BME280;34913;47.520;19.186;2023-03-25T00:32:11;98949.03;;;14.58;64.77
49102;BME280;34913;47.520;19.186;2023-03-25T00:34:37;98952.06;;;14.55;64.90
49102;BME280;34913;47.520;19.186;2023-03-25T00:37:08;98956.72;;;14.53;64.79
49102;BME280;34913;47.520;19.186;2023-03-25T00:39:35;98956.44;;;14.48;65.16
49102;BME280;34913;47.520;19.186;2023-03-25T00:42:00;98956.63;;;14.46;65.39
49102;BME280;34913;47.520;19.186;2023-03-25T00:44:27;98960.59;;;14.50;65.21
49102;BME280;34913;47.520;19.186;2023-03-25T00:46:52;98958.09;;;14.49;65.19
49102;BME280;34913;47.520;19.186;2023-03-25T00:49:18;98951.94;;;14.48;65.27
49102;BME280;34913;47.520;19.186;2023-03-25T00:51:44;98953.97;;;14.46;65.35
49102;BME280;34913;47.520;19.186;2023-03-25T00:54:10;98955.63;;;14.47;65.24
49102;BME280;34913;47.520;19.186;2023-03-25T00:56:36;98957.28;;;14.48;65.46
49102;BME280;34913;47.520;19.186;2023-03-25T00:59:01;98960.34;;;14.60;64.81
49102;BME280;34913;47.520;19.186;2023-03-25T01:01:27;98957.34;;;14.63;63.76
49102;BME280;34913;47.520;19.186;2023-03-25T01:03:54;98955.31;;;14.88;62.11
49102;BME280;34913;47.520;19.186;2023-03-25T01:06:27;98952.41;;;14.75;62.15
49102;BME280;34913;47.520;19.186;2023-03-25T01:08:55;98953.72;;;14.79;62.04
49102;BME280;34913;47.520;19.186;2023-03-25T01:11:24;98957.88;;;14.82;61.86
49102;BME280;34913;47.520;19.186;2023-03-25T01:13:52;98957.63;;;14.91;61.38
49102;BME280;34913;47.520;19.186;2023-03-25T01:16:17;98950.91;;;14.95;61.09
49102;BME280;34913;47.520;19.186;2023-03-25T01:18:43;98946.63;;;15.09;61.16
49102;BME280;34913;47.520;19.186;2023-03-25T01:21:09;98951.38;;;14.99;62.70
49102;BME280;34913;47.520;19.186;2023-03-25T01:23:34;98946.94;;;14.91;63.69
49102;BME280;34913;47.520;19.186;2023-03-25T01:26:00;98948.34;;;15.02;64.56
49102;BME280;34913;47.520;19.186;2023-03-25T01:28:26;98947.13;;;14.90;65.49
49102;BME280;34913;47.520;19.186;2023-03-25T01:30:59;98964.34;;;14.87;66.07
49102;BME280;34913;47.520;19.186;2023-03-25T01:33:25;98970.41;;;14.81;66.86
49102;BME280;34913;47.520;19.186;2023-03-25T01:35:51;98970.41;;;14.81;67.70
49102;BME280;34913;47.520;19.186;2023-03-25T01:38:17;98958.63;;;14.67;68.34
49102;BME280;34913;47.520;19.186;2023-03-25T01:40:45;98979.06;;;14.60;69.39
49102;BME280;34913;47.520;19.186;2023-03-25T01:43:11;98967.34;;;14.61;69.37
49102;BME280;34913;47.520;19.186;2023-03-25T01:45:37;98981.38;;;14.63;70.01
49102;BME280;34913;47.520;19.186;2023-03-25T01:48:07;98983.09;;;14.56;71.12
49102;BME280;34913;47.520;19.186;2023-03-25T01:50:38;98977.63;;;14.49;71.70
49102;BME280;34913;47.520;19.186;2023-03-25T01:53:06;98973.31;;;14.40;72.57
49102;BME280;34913;47.520;19.186;2023-03-25T01:55:34;98973.88;;;14.28;73.59
49102;BME280;34913;47.520;19.186;2023-03-25T01:58:03;98972.59;;;14.23;73.93
49102;BME280;34913;47.520;19.186;2023-03-25T02:00:32;98977.97;;;14.15;74.56
49102;BME280;34913;47.520;19.186;2023-03-25T02:02:58;98982.50;;;14.07;75.01
49102;BME280;34913;47.520;19.186;2023-03-25T02:05:45;98978.66;;;14.09;75.05
49102;BME280;34913;47.520;19.186;2023-03-25T02:08:13;98993.66;;;14.10;74.84
49102;BME280;34913;47.520;19.186;2023-03-25T02:10:41;98993.38;;;13.97;75.85
49102;BME280;34913;47.520;19.186;2023-03-25T02:13:09;99002.09;;;13.91;77.01
49102;BME280;34913;47.520;19.186;2023-03-25T02:41:34;98996.19;;;12.99;86.63
49102;BME280;34913;47.520;19.186;2023-03-25T02:44:22;98997.22;;;12.98;86.83
49102;BME280;34913;47.520;19.186;2023-03-25T02:46:55;98997.88;;;13.00;87.28
49102;BME280;34913;47.520;19.186;2023-03-25T02:49:34;98997.56;;;13.11;86.55
49102;BME280;34913;47.520;19.186;2023-03-25T02:52:11;98993.88;;;12.96;87.50
49102;BME280;34913;47.520;19.186;2023-03-25T02:54:40;98985.38;;;12.84;87.16
49102;BME280;34913;47.520;19.186;2023-03-25T02:57:07;98974.25;;;12.89;87.32
49102;BME280;34913;47.520;19.186;2023-03-25T02:59:34;98981.53;;;12.79;87.88
49102;BME280;34913;47.520;19.186;2023-03-25T03:02:06;98988.69;;;12.78;87.88
49102;BME280;34913;47.520;19.186;2023-03-25T03:04:43;98987.38;;;12.66;88.85
49102;BME280;34913;47.520;19.186;2023-03-25T03:07:10;99003.66;;;12.71;88.52
49102;BME280;34913;47.520;19.186;2023-03-25T03:09:45;98989.69;;;12.69;88.36
49102;BME280;34913;47.520;19.186;2023-03-25T03:12:33;98996.34;;;12.65;88.66
49102;BME280;34913;47.520;19.186;2023-03-25T03:23:55;98999.00;;;12.49;89.68
49102;BME280;34913;47.520;19.186;2023-03-25T03:26:57;99001.63;;;12.41;89.68
49102;BME280;34913;47.520;19.186;2023-03-25T03:29:34;99007.63;;;12.51;88.42
49102;BME280;34913;47.520;19.186;2023-03-25T03:32:06;99010.13;;;12.52;88.12
49102;BME280;34913;47.520;19.186;2023-03-25T03:34:35;99008.13;;;12.46;89.13
49102;BME280;34913;47.520;19.186;2023-03-25T03:37:10;98995.81;;;12.45;89.38
49102;BME280;34913;47.520;19.186;2023-03-25T03:39:39;99004.16;;;12.50;89.00
49102;BME280;34913;47.520;19.186;2023-03-25T03:42:28;99004.75;;;12.28;90.30
49102;BME280;34913;47.520;19.186;2023-03-25T03:44:59;99011.38;;;12.24;92.49
49102;BME280;34913;47.520;19.186;2023-03-25T03:47:29;99017.16;;;12.11;93.60
49102;BME280;34913;47.520;19.186;2023-03-25T03:49:59;99020.78;;;12.02;95.77
49102;BME280;34913;47.520;19.186;2023-03-25T03:52:32;99027.38;;;11.90;97.54
49102;BME280;34913;47.520;19.186;2023-03-25T03:55:27;99030.22;;;11.96;98.39
49102;BME280;34913;47.520;19.186;2023-03-25T03:58:01;99021.19;;;11.81;97.89
49102;BME280;34913;47.520;19.186;2023-03-25T04:00:56;99034.47;;;11.81;99.07
49102;BME280;34913;47.520;19.186;2023-03-25T04:03:30;99038.66;;;11.92;97.07
49102;BME280;34913;47.520;19.186;2023-03-25T04:06:08;99038.78;;;11.82;97.96
49102;BME280;34913;47.520;19.186;2023-03-25T04:08:42;99031.81;;;11.81;97.40
49102;BME280;34913;47.520;19.186;2023-03-25T04:11:18;99040.34;;;11.67;99.02
49102;BME280;34913;47.520;19.186;2023-03-25T04:13:48;99049.63;;;11.63;99.07
49102;BME280;34913;47.520;19.186;2023-03-25T04:16:16;99058.72;;;11.60;99.21
49102;BME280;34913;47.520;19.186;2023-03-25T04:18:42;99059.72;;;11.59;100.00
49102;BME280;34913;47.520;19.186;2023-03-25T04:21:08;99064.94;;;11.69;99.83
49102;BME280;34913;47.520;19.186;2023-03-25T04:23:34;99068.78;;;11.74;99.63
49102;BME280;34913;47.520;19.186;2023-03-25T04:26:02;99061.66;;;11.75;99.92
49102;BME280;34913;47.520;19.186;2023-03-25T04:28:28;99068.63;;;11.76;100.00
49102;BME280;34913;47.520;19.186;2023-03-25T04:30:54;99071.16;;;11.78;100.00
49102;BME280;34913;47.520;19.186;2023-03-25T04:33:25;99075.22;;;11.64;100.00
49102;BME280;34913;47.520;19.186;2023-03-25T04:35:51;99077.44;;;11.77;100.00
49102;BME280;34913;47.520;19.186;2023-03-25T04:38:19;99076.31;;;11.79;100.00
49102;BME280;34913;47.520;19.186;2023-03-25T04:40:45;99088.22;;;11.75;100.00
49102;BME280;34913;47.520;19.186;2023-03-25T04:43:15;99073.13;;;11.75;100.00
49102;BME280;34913;47.520;19.186;2023-03-25T04:45:42;99090.38;;;11.71;100.00
49102;BME280;34913;47.520;19.186;2023-03-25T04:48:24;99095.69;;;11.71;100.00
49102;BME280;34913;47.520;19.186;2023-03-25T04:50:55;99101.47;;;11.67;100.00
49102;BME280;34913;47.520;19.186;2023-03-25T04:53:22;99089.56;;;11.53;100.00
49102;BME280;34913;47.520;19.186;2023-03-25T04:55:47;99085.72;;;11.48;100.00
49102;BME280;34913;47.520;19.186;2023-03-25T04:58:14;99084.94;;;11.55;100.00
49102;BME280;34913;47.520;19.186;2023-03-25T05:00:41;99090.63;;;11.60;100.00
49102;BME280;34913;47.520;19.186;2023-03-25T05:03:08;99100.13;;;11.63;100.00
49102;BME280;34913;47.520;19.186;2023-03-25T05:05:36;99096.03;;;11.51;100.00
49102;BME280;34913;47.520;19.186;2023-03-25T05:08:02;99106.44;;;11.62;100.00
49102;BME280;34913;47.520;19.186;2023-03-25T05:10:28;99114.75;;;11.67;100.00
49102;BME280;34913;47.520;19.186;2023-03-25T05:13:02;99107.09;;;11.64;100.00
49102;BME280;34913;47.520;19.186;2023-03-25T05:15:29;99107.84;;;11.74;100.00
49102;BME280;34913;47.520;19.186;2023-03-25T05:17:57;99111.03;;;11.78;100.00
49102;BME280;34913;47.520;19.186;2023-03-25T05:20:22;99114.47;;;11.70;100.00
49102;BME280;34913;47.520;19.186;2023-03-25T05:22:49;99116.13;;;11.71;100.00
49102;BME280;34913;47.520;19.186;2023-03-25T05:25:17;99109.97;;;11.70;100.00
49102;BME280;34913;47.520;19.186;2023-03-25T05:27:46;99110.50;;;11.74;99.83
49102;BME280;34913;47.520;19.186;2023-03-25T05:30:12;99119.91;;;11.68;100.00
49102;BME280;34913;47.520;19.186;2023-03-25T05:32:38;99117.75;;;11.64;100.00
49102;BME280;34913;47.520;19.186;2023-03-25T05:35:05;99118.03;;;11.61;100.00
49102;BME280;34913;47.520;19.186;2023-03-25T05:37:31;99127.00;;;11.60;100.00
49102;BME280;34913;47.520;19.186;2023-03-25T05:39:57;99130.88;;;11.65;100.00
49102;BME280;34913;47.520;19.186;2023-03-25T05:42:22;99135.44;;;11.55;100.00
49102;BME280;34913;47.520;19.186;2023-03-25T05:44:51;99131.63;;;11.58;100.00
49102;BME280;34913;47.520;19.186;2023-03-25T05:47:22;99123.88;;;11.64;100.00
49102;BME280;34913;47.520;19.186;2023-03-25T05:49:49;99118.56;;;11.64;100.00
49102;BME280;34913;47.520;19.186;2023-03-25T05:52:15;99126.00;;;11.61;100.00
49102;BME280;34913;47.520;19.186;2023-03-25T05:54:42;99127.13;;;11.76;97.39
49102;BME280;34913;47.520;19.186;2023-03-25T05:57:09;99122.78;;;11.75;98.30
49102;BME280;34913;47.520;19.186;2023-03-25T05:59:35;99120.28;;;11.73;96.89
49102;BME280;34913;47.520;19.186;2023-03-25T06:02:12;99112.69;;;11.79;96.15
49102;BME280;34913;47.520;19.186;2023-03-25T06:04:38;99123.63;;;11.75;96.24
49102;BME280;34913;47.520;19.186;2023-03-25T06:07:14;99121.38;;;11.81;95.44
49102;BME280;34913;47.520;19.186;2023-03-25T06:09:45;99131.88;;;11.64;96.94
49102;BME280;34913;47.520;19.186;2023-03-25T06:12:18;99133.91;;;11.53;97.73
49102;BME280;34913;47.520;19.186;2023-03-25T06:14:46;99132.94;;;11.54;97.82
49102;BME280;34913;47.520;19.186;2023-03-25T06:17:12;99138.78;;;11.57;95.71
49102;BME280;34913;47.520;19.186;2023-03-25T06:19:38;99145.31;;;11.63;97.17
49102;BME280;34913;47.520;19.186;2023-03-25T06:22:08;99142.09;;;11.59;97.24
49102;BME280;34913;47.520;19.186;2023-03-25T06:24:35;99136.63;;;11.61;96.51
49102;BME280;34913;47.520;19.186;2023-03-25T06:27:02;99136.13;;;11.57;97.18
49102;BME280;34913;47.520;19.186;2023-03-25T06:29:27;99141.13;;;11.60;96.54
49102;BME280;34913;47.520;19.186;2023-03-25T06:31:53;99134.41;;;11.48;97.44
49102;BME280;34913;47.520;19.186;2023-03-25T06:34:18;99137.81;;;11.40;95.16
49102;BME280;34913;47.520;19.186;2023-03-25T06:36:44;99140.09;;;11.35;97.98
49102;BME280;34913;47.520;19.186;2023-03-25T06:39:15;99137.97;;;11.39;98.37
49102;BME280;34913;47.520;19.186;2023-03-25T06:41:40;99138.88;;;11.48;96.95
49102;BME280;34913;47.520;19.186;2023-03-25T06:44:06;99139.88;;;11.46;97.10
49102;BME280;34913;47.520;19.186;2023-03-25T06:46:31;99150.25;;;11.58;94.91
49102;BME280;34913;47.520;19.186;2023-03-25T06:48:57;99146.38;;;11.70;93.37
49102;BME280;34913;47.520;19.186;2023-03-25T06:51:22;99143.59;;;11.80;92.22
49102;BME280;34913;47.520;19.186;2023-03-25T06:53:48;99155.16;;;11.88;91.83
49102;BME280;34913;47.520;19.186;2023-03-25T06:56:13;99156.91;;;11.80;90.51
49102;BME280;34913;47.520;19.186;2023-03-25T06:58:39;99159.81;;;11.86;89.69
49102;BME280;34913;47.520;19.186;2023-03-25T07:01:06;99152.19;;;11.91;89.32
49102;BME280;34913;47.520;19.186;2023-03-25T07:03:35;99163.09;;;11.80;88.35
49102;BME280;34913;47.520;19.186;2023-03-25T07:06:01;99157.44;;;11.83;89.19
49102;BME280;34913;47.520;19.186;2023-03-25T07:08:27;99154.50;;;11.86;88.54
49102;BME280;34913;47.520;19.186;2023-03-25T07:10:53;99162.38;;;11.96;88.81
49102;BME280;34913;47.520;19.186;2023-03-25T07:13:18;99153.38;;;11.97;90.39
49102;BME280;34913;47.520;19.186;2023-03-25T07:15:43;99159.81;;;12.12;85.23
49102;BME280;34913;47.520;19.186;2023-03-25T07:18:10;99157.69;;;12.24;85.55
49102;BME280;34913;47.520;19.186;2023-03-25T07:20:35;99156.03;;;12.23;87.92
49102;BME280;34913;47.520;19.186;2023-03-25T07:23:00;99158.75;;;12.31;86.80
49102;BME280;34913;47.520;19.186;2023-03-25T07:25:26;99151.19;;;12.52;84.38
49102;BME280;34913;47.520;19.186;2023-03-25T07:27:51;99166.00;;;12.55;85.96
49102;BME280;34913;47.520;19.186;2023-03-25T07:30:17;99165.56;;;12.68;83.47
49102;BME280;34913;47.520;19.186;2023-03-25T07:32:44;99168.75;;;12.71;80.80
49102;BME280;34913;47.520;19.186;2023-03-25T07:35:10;99160.06;;;12.61;80.83
49102;BME280;34913;47.520;19.186;2023-03-25T07:37:36;99167.06;;;12.70;78.80
49102;BME280;34913;47.520;19.186;2023-03-25T07:40:02;99160.75;;;12.71;78.69
49102;BME280;34913;47.520;19.186;2023-03-25T07:42:27;99178.16;;;12.92;78.53
49102;BME280;34913;47.520;19.186;2023-03-25T07:44:53;99154.56;;;13.13;78.70
49102;BME280;34913;47.520;19.186;2023-03-25T07:47:18;99161.25;;;13.25;77.89
49102;BME280;34913;47.520;19.186;2023-03-25T07:49:43;99165.94;;;13.31;76.14
49102;BME280;34913;47.520;19.186;2023-03-25T07:52:11;99173.28;;;13.37;73.91
49102;BME280;34913;47.520;19.186;2023-03-25T07:54:36;99166.94;;;13.22;76.18
49102;BME280;34913;47.520;19.186;2023-03-25T07:57:02;99165.44;;;13.20;76.36
49102;BME280;34913;47.520;19.186;2023-03-25T07:59:28;99161.59;;;13.22;77.21
49102;BME280;34913;47.520;19.186;2023-03-25T08:01:53;99158.28;;;13.28;75.76
49102;BME280;34913;47.520;19.186;2023-03-25T08:04:18;99161.16;;;13.51;75.17
49102;BME280;34913;47.520;19.186;2023-03-25T08:06:44;99165.13;;;13.88;73.20
49102;BME280;34913;47.520;19.186;2023-03-25T08:09:10;99167.91;;;14.19;71.88
49102;BME280;34913;47.520;19.186;2023-03-25T08:11:35;99159.00;;;14.51;71.66
49102;BME280;34913;47.520;19.186;2023-03-25T08:14:01;99154.22;;;14.86;70.45
49102;BME280;34913;47.520;19.186;2023-03-25T08:16:26;99156.63;;;15.03;68.02
49102;BME280;34913;47.520;19.186;2023-03-25T08:18:52;99153.84;;;15.20;68.19
49102;BME280;34913;47.520;19.186;2023-03-25T08:21:18;99164.78;;;15.56;66.51
49102;BME280;34913;47.520;19.186;2023-03-25T08:23:52;99157.97;;;15.76;63.86
49102;BME280;34913;47.520;19.186;2023-03-25T08:26:23;99166.75;;;15.85;63.69
49102;BME280;34913;47.520;19.186;2023-03-25T08:28:49;99161.16;;;15.72;63.04
49102;BME280;34913;47.520;19.186;2023-03-25T08:31:15;99152.03;;;16.04;62.94
49102;BME280;34913;47.520;19.186;2023-03-25T08:33:40;99148.75;;;15.94;61.31
49102;BME280;34913;47.520;19.186;2023-03-25T08:36:09;99156.16;;;15.91;63.19
49102;BME280;34913;47.520;19.186;2023-03-25T08:38:38;99153.13;;;16.09;61.63
49102;BME280;34913;47.520;19.186;2023-03-25T08:41:03;99145.66;;;16.34;59.70
49102;BME280;34913;47.520;19.186;2023-03-25T08:43:29;99151.84;;;16.50;60.29
49102;BME280;34913;47.520;19.186;2023-03-25T08:45:54;99149.38;;;16.33;57.86
49102;BME280;34913;47.520;19.186;2023-03-25T08:48:20;99148.34;;;16.49;58.09
49102;BME280;34913;47.520;19.186;2023-03-25T08:50:46;99156.13;;;16.44;57.68
49102;BME280;34913;47.520;19.186;2023-03-25T08:53:12;99136.25;;;16.68;57.17
49102;BME280;34913;47.520;19.186;2023-03-25T08:55:37;99141.94;;;16.94;58.30
49102;BME280;34913;47.520;19.186;2023-03-25T08:58:03;99139.53;;;16.99;55.32
49102;BME280;34913;47.520;19.186;2023-03-25T09:00:30;99141.69;;;17.25;55.60
49102;BME280;34913;47.520;19.186;2023-03-25T09:02:56;99123.53;;;17.27;54.80
49102;BME280;34913;47.520;19.186;2023-03-25T09:05:24;99129.53;;;17.29;54.88
49102;BME280;34913;47.520;19.186;2023-03-25T09:07:49;99125.19;;;17.28;55.22
49102;BME280;34913;47.520;19.186;2023-03-25T09:10:15;99133.81;;;17.45;53.96
49102;BME280;34913;47.520;19.186;2023-03-25T09:12:41;99130.25;;;17.38;52.19
49102;BME280;34913;47.520;19.186;2023-03-25T09:15:07;99142.06;;;17.44;52.92
49102;BME280;34913;47.520;19.186;2023-03-25T09:17:32;99142.75;;;17.52;51.39
49102;BME280;34913;47.520;19.186;2023-03-25T09:19:58;99150.13;;;17.65;53.25
49102;BME280;34913;47.520;19.186;2023-03-25T09:22:23;99139.28;;;17.73;51.74
49102;BME280;34913;47.520;19.186;2023-03-25T09:24:49;99141.88;;;17.88;51.31
49102;BME280;34913;47.520;19.186;2023-03-25T09:27:14;99141.19;;;18.07;53.39
49102;BME280;34913;47.520;19.186;2023-03-25T09:29:40;99148.75;;;17.97;51.64
49102;BME280;34913;47.520;19.186;2023-03-25T09:32:06;99147.22;;;18.09;51.70
49102;BME280;34913;47.520;19.186;2023-03-25T09:34:31;99149.91;;;18.16;51.96
49102;BME280;34913;47.520;19.186;2023-03-25T09:36:57;99144.56;;;18.51;51.41
49102;BME280;34913;47.520;19.186;2023-03-25T09:39:22;99147.31;;;17.95;51.96
49102;BME280;34913;47.520;19.186;2023-03-25T09:45:04;99146.59;;;18.14;50.96
49102;BME280;34913;47.520;19.186;2023-03-25T09:47:31;99142.31;;;18.20;50.73
49102;BME280;34913;47.520;19.186;2023-03-25T09:50:05;99149.44;;;18.34;50.38
49102;BME280;34913;47.520;19.186;2023-03-25T09:52:41;99147.16;;;18.72;50.88
49102;BME280;34913;47.520;19.186;2023-03-25T09:55:15;99141.69;;;18.52;50.15
49102;BME280;34913;47.520;19.186;2023-03-25T09:57:49;99137.72;;;18.83;47.38
49102;BME280;34913;47.520;19.186;2023-03-25T10:00:21;99134.66;;;18.51;48.87
49102;BME280;34913;47.520;19.186;2023-03-25T10:03:06;99152.81;;;18.84;48.01
49102;BME280;34913;47.520;19.186;2023-03-25T10:11:20;99155.22;;;19.27;45.21
49102;BME280;34913;47.520;19.186;2023-03-25T10:24:35;99158.69;;;19.07;46.30
49102;BME280;34913;47.520;19.186;2023-03-25T10:27:20;99151.31;;;19.29;47.96
49102;BME280;34913;47.520;19.186;2023-03-25T10:33:11;99163.25;;;19.07;43.46
49102;BME280;34913;47.520;19.186;2023-03-25T10:35:42;99159.41;;;18.75;44.30
49102;BME280;34913;47.520;19.186;2023-03-25T10:40:41;99154.22;;;18.73;47.27
49102;BME280;34913;47.520;19.186;2023-03-25T10:43:35;99157.13;;;18.44;47.42
49102;BME280;34913;47.520;19.186;2023-03-25T10:48:34;99160.03;;;18.42;46.73
49102;BME280;34913;47.520;19.186;2023-03-25T10:51:07;99156.16;;;18.51;46.36
49102;BME280;34913;47.520;19.186;2023-03-25T10:53:34;99149.53;;;18.19;46.99
49102;BME280;34913;47.520;19.186;2023-03-25T10:56:21;99147.94;;;17.97;48.74
49102;BME280;34913;47.520;19.186;2023-03-25T10:58:51;99143.31;;;17.91;47.04
49102;BME280;34913;47.520;19.186;2023-03-25T11:04:01;99140.81;;;18.10;47.14
49102;BME280;34913;47.520;19.186;2023-03-25T11:06:31;99145.94;;;18.05;47.20
49102;BME280;34913;47.520;19.186;2023-03-25T11:09:03;99160.75;;;17.73;49.18
49102;BME280;34913;47.520;19.186;2023-03-25T11:11:34;99157.00;;;17.96;49.62
49102;BME280;34913;47.520;19.186;2023-03-25T11:14:01;99148.88;;;17.68;47.42
49102;BME280;34913;47.520;19.186;2023-03-25T11:16:32;99149.91;;;17.45;48.06
49102;BME280;34913;47.520;19.186;2023-03-25T11:19:02;99140.84;;;17.68;48.33
49102;BME280;34913;47.520;19.186;2023-03-25T11:21:32;99156.09;;;17.67;46.68
49102;BME280;34913;47.520;19.186;2023-03-25T11:24:00;99154.16;;;17.54;45.95
49102;BME280;34913;47.520;19.186;2023-03-25T11:26:28;99152.53;;;17.60;47.96
49102;BME280;34913;47.520;19.186;2023-03-25T11:29:02;99146.47;;;17.51;48.94
49102;BME280;34913;47.520;19.186;2023-03-25T11:31:33;99140.53;;;17.56;50.55
49102;BME280;34913;47.520;19.186;2023-03-25T11:37:03;99154.31;;;17.10;48.84
49102;BME280;34913;47.520;19.186;2023-03-25T11:39:36;99163.03;;;16.68;50.52
49102;BME280;34913;47.520;19.186;2023-03-25T11:44:47;99166.91;;;16.51;50.49
49102;BME280;34913;47.520;19.186;2023-03-25T11:47:24;99155.97;;;16.75;49.54
49102;BME280;34913;47.520;19.186;2023-03-25T11:49:51;99155.44;;;17.01;47.04
49102;BME280;34913;47.520;19.186;2023-03-25T11:52:22;99145.38;;;16.88;47.48
49102;BME280;34913;47.520;19.186;2023-03-25T11:54:48;99143.09;;;16.85;47.97
49102;BME280;34913;47.520;19.186;2023-03-25T11:57:26;99144.84;;;16.63;45.51
49102;BME280;34913;47.520;19.186;2023-03-25T12:03:25;99148.44;;;16.41;46.03
49102;BME280;34913;47.520;19.186;2023-03-25T12:08:29;99156.91;;;16.00;48.75
49102;BME280;34913;47.520;19.186;2023-03-25T12:11:06;99154.69;;;15.89;49.64
49102;BME280;34913;47.520;19.186;2023-03-25T12:19:33;99155.09;;;15.78;48.28
49102;BME280;34913;47.520;19.186;2023-03-25T12:22:28;99164.72;;;15.87;47.31
49102;BME280;34913;47.520;19.186;2023-03-25T12:41:17;99137.66;;;15.67;47.70
49102;BME280;34913;47.520;19.186;2023-03-25T12:56:58;99116.97;;;16.13;45.80
49102;BME280;34913;47.520;19.186;2023-03-25T13:07:37;99105.97;;;16.53;44.72
49102;BME280;34913;47.520;19.186;2023-03-25T13:10:20;99107.91;;;16.29;44.16
49102;BME280;34913;47.520;19.186;2023-03-25T13:12:51;99105.78;;;16.10;45.57
49102;BME280;34913;47.520;19.186;2023-03-25T13:15:38;99105.97;;;16.08;45.97
49102;BME280;34913;47.520;19.186;2023-03-25T13:18:16;99104.75;;;16.11;44.81
49102;BME280;34913;47.520;19.186;2023-03-25T13:20:47;99097.47;;;16.05;45.65
49102;BME280;34913;47.520;19.186;2023-03-25T13:23:19;99095.53;;;15.99;44.36
49102;BME280;34913;47.520;19.186;2023-03-25T13:28:20;99095.59;;;15.76;44.52
49102;BME280;34913;47.520;19.186;2023-03-25T13:30:48;99102.22;;;15.80;44.03
49102;BME280;34913;47.520;19.186;2023-03-25T13:33:27;99102.81;;;15.90;44.64
49102;BME280;34913;47.520;19.186;2023-03-25T13:41:25;99107.00;;;15.70;43.58
49102;BME280;34913;47.520;19.186;2023-03-25T13:46:35;99109.81;;;15.76;44.17
49102;BME280;34913;47.520;19.186;2023-03-25T13:51:37;99111.19;;;15.87;43.45
49102;BME280;34913;47.520;19.186;2023-03-25T13:54:17;99107.88;;;15.85;43.62
49102;BME280;34913;47.520;19.186;2023-03-25T14:09:27;99106.47;;;15.74;43.12
49102;BME280;34913;47.520;19.186;2023-03-25T14:11:43;99110.94;;;15.82;43.00
49102;BME280;34913;47.520;19.186;2023-03-25T14:14:18;99110.63;;;15.77;44.09
49102;BME280;34913;47.520;19.186;2023-03-25T14:16:51;99116.28;;;15.82;43.36
49102;BME280;34913;47.520;19.186;2023-03-25T14:19:28;99096.81;;;15.73;44.17
49102;BME280;34913;47.520;19.186;2023-03-25T14:21:55;99107.56;;;15.65;43.51
49102;BME280;34913;47.520;19.186;2023-03-25T14:24:34;99106.25;;;15.61;44.99
49102;BME280;34913;47.520;19.186;2023-03-25T14:27:06;99109.88;;;15.45;44.19
49102;BME280;34913;47.520;19.186;2023-03-25T14:29:40;99111.00;;;15.28;45.21
49102;BME280;34913;47.520;19.186;2023-03-25T14:34:41;99099.69;;;15.26;44.77
49102;BME280;34913;47.520;19.186;2023-03-25T14:44:34;99103.81;;;15.05;45.67
49102;BME280;34913;47.520;19.186;2023-03-25T14:47:02;99101.97;;;15.06;46.01
49102;BME280;34913;47.520;19.186;2023-03-25T14:49:49;99098.78;;;15.11;46.44
49102;BME280;34913;47.520;19.186;2023-03-25T14:52:27;99104.91;;;15.19;45.74
49102;BME280;34913;47.520;19.186;2023-03-25T14:54:54;99108.59;;;15.18;45.22
49102;BME280;34913;47.520;19.186;2023-03-25T14:57:25;99110.16;;;15.04;45.21
49102;BME280;34913;47.520;19.186;2023-03-25T15:02:29;99104.63;;;15.06;44.81
49102;BME280;34913;47.520;19.186;2023-03-25T15:05:19;99104.69;;;14.98;45.08
49102;BME280;34913;47.520;19.186;2023-03-25T15:07:59;99103.03;;;14.97;45.17
49102;BME280;34913;47.520;19.186;2023-03-25T15:10:39;99095.53;;;14.92;45.32
49102;BME280;34913;47.520;19.186;2023-03-25T15:13:32;99101.84;;;14.99;45.59
49102;BME280;34913;47.520;19.186;2023-03-25T15:21:13;99116.81;;;14.86;45.15
49102;BME280;34913;47.520;19.186;2023-03-25T15:39:57;99111.75;;;14.60;44.78
49102;BME280;34913;47.520;19.186;2023-03-25T15:42:44;99110.69;;;14.69;45.19
49102;BME280;34913;47.520;19.186;2023-03-25T15:45:59;99111.84;;;14.74;44.57
49102;BME280;34913;47.520;19.186;2023-03-25T15:56:43;99107.88;;;14.70;45.27
49102;BME280;34913;47.520;19.186;2023-03-25T15:59:29;99099.22;;;14.60;44.82
49102;BME280;34913;47.520;19.186;2023-03-25T16:01:59;99106.25;;;14.53;45.37
49102;BME280;34913;47.520;19.186;2023-03-25T16:04:40;99105.31;;;14.46;46.25
49102;BME280;34913;47.520;19.186;2023-03-25T16:07:11;99102.13;;;14.42;45.55
49102;BME280;34913;47.520;19.186;2023-03-25T16:09:43;99104.47;;;14.37;45.20